Time;durP1;ratioP1;P1;durP2;ratioP2;P2;SDS_P1;SDS_P2;PMS_P1;PMS_P2;Temp;Humidity;BMP_temperature;BMP_pressure;BME280_temperature;BME280_humidity;BME280_pressure;Samples;Min_cycle;Max_cycle;Signal;HPM_P1;HPM_P2
2024/02/08 00:01:17;;;;;;;;;;;15.50;66.20;;;;;;5013160;28;19914;-69
2024/02/08 00:03:42;;;;;;;;;;;15.60;65.70;;;;;;5012259;28;19969;-69
2024/02/08 00:06:08;;;;;;;;;;;15.50;66.20;;;;;;5012649;28;19913;-69
2024/02/08 00:08:35;;;;;;;;;;;15.50;66.30;;;;;;5012495;28;19920;-69
2024/02/08 00:11:02;;;;;;;;;;;15.50;66.50;;;;;;5012829;28;20334;-69
2024/02/08 00:13:28;;;;;;;;;;;15.50;66.10;;;;;;5012551;28;19929;-69
2024/02/08 00:15:53;;;;;;;;;;;15.50;66.60;;;;;;5012430;28;19909;-69
2024/02/08 00:18:19;;;;;;;;;;;15.40;66.40;;;;;;5012483;28;20339;-69
2024/02/08 00:20:44;;;;;;;;;;;15.40;65.90;;;;;;5012392;28;19956;-69
2024/02/08 00:23:10;;;;;;;;;;;15.40;66.50;;;;;;5012386;28;20494;-69
2024/02/08 00:25:36;;;;;;;;;;;15.50;66.20;;;;;;5012127;28;19917;-69
2024/02/08 00:28:01;;;;;;;;;;;15.40;66.30;;;;;;5012598;28;19980;-69
2024/02/08 00:30:27;;;;;;;;;;;15.50;66.00;;;;;;5012839;28;19920;-79
2024/02/08 00:32:52;;;;;;;;;;;15.40;66.40;;;;;;5012348;28;19910;-79
2024/02/08 00:35:18;;;;;;;;;;;15.40;66.20;;;;;;5012299;28;20334;-79
2024/02/08 00:37:47;;;;;;;;;;;15.40;66.10;;;;;;5012367;28;19916;-78
2024/02/08 00:40:13;;;;;;;;;;;15.40;61.80;;;;;;5012326;28;19910;-79
2024/02/08 00:42:39;;;;;;;;;;;15.40;65.90;;;;;;5012380;28;19909;-78
2024/02/08 00:45:05;;;;;;;;;;;15.40;66.10;;;;;;5012134;28;19964;-78
2024/02/08 00:47:30;;;;;;;;;;;15.30;64.90;;;;;;5012241;28;19910;-78
2024/02/08 00:49:57;;;;;;;;;;;15.60;67.00;;;;;;5012293;28;19910;-78
2024/02/08 00:52:23;;;;;;;;;;;15.40;66.10;;;;;;5012659;28;19944;-78
2024/02/08 00:54:51;;;;;;;;;;;16.70;67.30;;;;;;5012627;28;19991;-79
2024/02/08 00:57:16;;;;;;;;;;;15.30;66.10;;;;;;5012224;28;20100;-78
2024/02/08 00:59:42;;;;;;;;;;;15.30;66.00;;;;;;5012606;28;19910;-79
2024/02/08 01:02:11;;;;;;;;;;;15.30;65.60;;;;;;5012352;28;19941;-78
2024/02/08 01:04:37;;;;;;;;;;;15.40;62.50;;;;;;5012053;28;20003;-78
2024/02/08 01:07:03;;;;;;;;;;;15.30;66.10;;;;;;5012402;28;19913;-78
2024/02/08 01:09:29;;;;;;;;;;;15.30;65.60;;;;;;5012346;28;19910;-78
2024/02/08 01:11:55;;;;;;;;;;;15.20;66.40;;;;;;5012082;28;20281;-78
2024/02/08 01:14:23;;;;;;;;;;;15.20;66.20;;;;;;5012286;28;19909;-78
2024/02/08 01:17:06;;;;;;;;;;;15.20;65.60;;;;;;5012253;28;19910;-78
2024/02/08 01:19:33;;;;;;;;;;;15.20;66.30;;;;;;5012288;28;19917;-78
2024/02/08 01:21:59;;;;;;;;;;;13.30;65.20;;;;;;5012194;28;19910;-79
2024/02/08 01:24:25;;;;;;;;;;;15.20;66.00;;;;;;5011782;28;19921;-79
2024/02/08 01:26:51;;;;;;;;;;;15.20;66.10;;;;;;5012151;28;20340;-79
2024/02/08 01:29:18;;;;;;;;;;;15.30;66.40;;;;;;5012229;28;19918;-79
2024/02/08 01:31:44;;;;;;;;;;;15.20;66.30;;;;;;5012226;28;19909;-79
2024/02/08 01:34:10;;;;;;;;;;;15.20;66.00;;;;;;5011694;28;19910;-79
2024/02/08 01:36:40;;;;;;;;;;;15.20;66.20;;;;;;5012080;28;19992;-79
2024/02/08 01:39:12;;;;;;;;;;;15.20;61.70;;;;;;5015408;28;19909;-79
2024/02/08 01:41:42;;;;;;;;;;;15.10;66.20;;;;;;5015658;28;19909;-79
2024/02/08 01:44:08;;;;;;;;;;;15.00;61.50;;;;;;5015355;28;20008;-79
2024/02/08 01:46:43;;;;;;;;;;;15.10;65.80;;;;;;5015774;28;19916;-79
2024/02/08 01:49:09;;;;;;;;;;;15.10;66.60;;;;;;5013961;28;19909;-79
2024/02/08 01:51:59;;;;;;;;;;;15.10;66.00;;;;;;5015062;28;20214;-79
2024/02/08 01:54:43;;;;;;;;;;;15.20;66.20;;;;;;5014979;28;20333;-79
2024/02/08 01:57:26;;;;;;;;;;;15.10;65.80;;;;;;5015010;28;19909;-79
2024/02/08 02:00:12;;;;;;;;;;;15.20;66.40;;;;;;5015248;28;20336;-79
2024/02/08 02:03:00;;;;;;;;;;;15.20;66.00;;;;;;5014696;28;19921;-79
2024/02/08 02:05:48;;;;;;;;;;;15.10;66.60;;;;;;5015013;28;19918;-79
2024/02/08 02:08:34;;;;;;;;;;;15.10;63.00;;;;;;5014826;28;19953;-79
2024/02/08 02:11:24;;;;;;;;;;;15.10;66.50;;;;;;5014786;28;20004;-79
2024/02/08 02:14:09;;;;;;;;;;;15.10;66.00;;;;;;5015222;28;19909;-79
2024/02/08 02:17:27;;;;;;;;;;;15.10;66.40;;;;;;5014762;28;20368;-79
2024/02/08 02:20:18;;;;;;;;;;;15.10;61.80;;;;;;5005949;28;19917;-78
2024/02/08 02:22:59;;;;;;;;;;;15.20;66.50;;;;;;5014450;28;20486;-79
2024/02/08 02:25:48;;;;;;;;;;;15.20;66.30;;;;;;5014613;28;20353;-79
2024/02/08 02:28:32;;;;;;;;;;;15.10;66.40;;;;;;5014530;28;19909;-79
2024/02/08 02:31:19;;;;;;;;;;;15.10;66.40;;;;;;5014341;28;19925;-79
2024/02/08 02:34:05;;;;;;;;;;;15.10;66.20;;;;;;5014359;28;20337;-79
2024/02/08 02:36:53;;;;;;;;;;;15.10;66.20;;;;;;5014417;28;19910;-79
2024/02/08 02:39:34;;;;;;;;;;;15.10;66.40;;;;;;5014185;28;20376;-78
2024/02/08 02:42:20;;;;;;;;;;;15.10;66.40;;;;;;5014501;28;19937;-78
2024/02/08 02:45:13;;;;;;;;;;;15.10;66.50;;;;;;5014061;28;20368;-78
2024/02/08 02:47:53;;;;;;;;;;;15.10;65.30;;;;;;5013744;28;20000;-79
2024/02/08 02:50:20;;;;;;;;;;;15.10;66.00;;;;;;5014089;28;19917;-79
2024/02/08 02:52:46;;;;;;;;;;;15.00;66.50;;;;;;5014249;28;19910;-78
2024/02/08 02:55:12;;;;;;;;;;;15.00;67.10;;;;;;5014369;28;20256;-78
2024/02/08 02:57:38;;;;;;;;;;;15.10;65.80;;;;;;5014209;28;19913;-78
2024/02/08 03:00:15;;;;;;;;;;;15.00;66.60;;;;;;5013916;28;20380;-79
2024/02/08 03:02:41;;;;;;;;;;;15.20;66.20;;;;;;5013920;28;19917;-79
2024/02/08 03:05:07;;;;;;;;;;;15.00;66.30;;;;;;5014042;28;19922;-79
2024/02/08 03:07:33;;;;;;;;;;;15.00;66.30;;;;;;5014117;28;19910;-79
2024/02/08 03:09:59;;;;;;;;;;;15.10;66.60;;;;;;5014385;28;19910;-79
2024/02/08 03:12:26;;;;;;;;;;;15.00;66.40;;;;;;5013733;28;19948;-79
2024/02/08 03:14:58;;;;;;;;;;;15.00;66.20;;;;;;5013947;28;19916;-79
2024/02/08 03:17:25;;;;;;;;;;;14.90;66.20;;;;;;5013959;28;19996;-78
2024/02/08 03:19:51;;;;;;;;;;;15.00;66.50;;;;;;5013906;28;20039;-79
2024/02/08 03:22:18;;;;;;;;;;;15.00;66.40;;;;;;5013988;28;19910;-79
2024/02/08 03:24:44;;;;;;;;;;;15.50;66.60;;;;;;5013472;28;19917;-79
2024/02/08 03:27:13;;;;;;;;;;;15.00;66.40;;;;;;5013786;28;19916;-79
2024/02/08 03:29:41;;;;;;;;;;;14.90;66.70;;;;;;5013337;28;19910;-79
2024/02/08 03:32:08;;;;;;;;;;;14.90;66.50;;;;;;5013472;28;19921;-79
2024/02/08 03:34:35;;;;;;;;;;;14.90;66.50;;;;;;5013369;28;20296;-79
2024/02/08 03:37:03;;;;;;;;;;;14.90;66.80;;;;;;5013401;28;19910;-79
2024/02/08 03:39:29;;;;;;;;;;;14.90;66.60;;;;;;5013775;28;20008;-78
2024/02/08 03:41:58;;;;;;;;;;;14.90;66.40;;;;;;5013141;28;20005;-79
2024/02/08 03:44:24;;;;;;;;;;;14.80;62.00;;;;;;5013136;28;19925;-79
2024/02/08 03:46:53;;;;;;;;;;;14.90;66.50;;;;;;5011882;28;20349;-78
2024/02/08 03:49:20;;;;;;;;;;;14.90;61.90;;;;;;5012629;28;20131;-79
2024/02/08 03:51:47;;;;;;;;;;;14.90;66.90;;;;;;5013202;28;19910;-79
2024/02/08 03:54:16;;;;;;;;;;;14.90;66.80;;;;;;5013007;28;19996;-78
2024/02/08 03:56:49;;;;;;;;;;;14.80;66.70;;;;;;5013076;28;19960;-79
2024/02/08 03:59:26;;;;;;;;;;;14.80;62.20;;;;;;5019396;28;19936;-79
2024/02/08 04:02:00;;;;;;;;;;;14.80;66.10;;;;;;5012358;28;19913;-78
2024/02/08 04:04:29;;;;;;;;;;;14.80;62.20;;;;;;5012631;28;19961;-79
2024/02/08 04:07:14;;;;;;;;;;;14.90;66.80;;;;;;5012804;28;19913;-79
2024/02/08 04:09:48;;;;;;;;;;;14.70;61.50;;;;;;5012723;28;19916;-78
2024/02/08 04:53:39;;;;;;;;;;;14.80;66.50;;;;;;5019135;28;19974;-79
2024/02/08 04:56:11;;;;;;;;;;;14.70;63.00;;;;;;5012397;28;19909;-79
2024/02/08 04:58:39;;;;;;;;;;;14.70;62.10;;;;;;5012190;28;19944;-80
2024/02/08 05:01:05;;;;;;;;;;;14.70;66.80;;;;;;5012145;28;19916;-79
2024/02/08 05:03:31;;;;;;;;;;;14.70;66.40;;;;;;5012046;28;19971;-79
2024/02/08 05:05:57;;;;;;;;;;;14.70;66.80;;;;;;5012893;28;20012;-79
2024/02/08 05:08:24;;;;;;;;;;;14.70;66.90;;;;;;5012428;28;20386;-79
2024/02/08 05:10:51;;;;;;;;;;;14.70;66.90;;;;;;5012474;28;20300;-80
2024/02/08 05:13:17;;;;;;;;;;;14.70;67.30;;;;;;5014884;28;19925;-80
2024/02/08 05:15:43;;;;;;;;;;;14.70;66.80;;;;;;5015899;28;19910;-69
2024/02/08 05:18:11;;;;;;;;;;;14.60;67.10;;;;;;5016136;28;19921;-69
2024/02/08 05:20:37;;;;;;;;;;;14.70;66.90;;;;;;5015699;28;19913;-69
2024/02/08 05:23:03;;;;;;;;;;;14.70;67.00;;;;;;5015506;28;19996;-69
2024/02/08 05:25:28;;;;;;;;;;;14.70;66.70;;;;;;5015622;28;20036;-69
2024/02/08 05:27:54;;;;;;;;;;;14.70;67.10;;;;;;5015480;28;19910;-69
2024/02/08 05:30:20;;;;;;;;;;;14.70;67.10;;;;;;5015288;28;20351;-69
2024/02/08 05:32:46;;;;;;;;;;;14.70;67.40;;;;;;5015954;28;19910;-69
2024/02/08 05:35:13;;;;;;;;;;;14.70;67.40;;;;;;5015241;28;20298;-69
2024/02/08 05:37:39;;;;;;;;;;;14.70;67.10;;;;;;5015466;28;19910;-69
2024/02/08 05:40:05;;;;;;;;;;;14.70;67.40;;;;;;5015109;28;19910;-69
2024/02/08 05:42:33;;;;;;;;;;;14.70;66.10;;;;;;5015169;28;20000;-69
2024/02/08 05:45:18;;;;;;;;;;;14.70;67.20;;;;;;5015164;28;20025;-69
2024/02/08 05:47:45;;;;;;;;;;;14.70;67.40;;;;;;5021916;28;19991;-69
2024/02/08 05:50:21;;;;;;;;;;;14.70;67.20;;;;;;5015308;28;19909;-69
2024/02/08 05:52:47;;;;;;;;;;;14.70;67.30;;;;;;5015389;28;19916;-69
2024/02/08 05:55:12;;;;;;;;;;;14.70;67.50;;;;;;5015037;28;19910;-69
2024/02/08 05:57:44;;;;;;;;;;;14.80;67.40;;;;;;5015016;28;19917;-69
2024/02/08 06:00:14;;;;;;;;;;;14.70;67.30;;;;;;5015003;28;19949;-69
2024/02/08 06:02:40;;;;;;;;;;;14.70;66.70;;;;;;5014970;28;20295;-70
2024/02/08 06:05:09;;;;;;;;;;;14.90;67.70;;;;;;5014908;28;19922;-69
2024/02/08 06:07:36;;;;;;;;;;;14.80;67.30;;;;;;5014782;28;20015;-69
2024/02/08 06:10:22;;;;;;;;;;;14.70;67.00;;;;;;5014744;28;19910;-69
2024/02/08 06:12:51;;;;;;;;;;;14.70;67.00;;;;;;5014802;28;19941;-69
2024/02/08 06:15:33;;;;;;;;;;;14.70;66.30;;;;;;5014620;28;19972;-69
2024/02/08 06:18:03;;;;;;;;;;;14.70;63.80;;;;;;5014564;28;19909;-69
2024/02/08 06:20:43;;;;;;;;;;;14.70;67.50;;;;;;5021065;28;20296;-69
2024/02/08 06:23:23;;;;;;;;;;;14.70;67.40;;;;;;5013920;28;19910;-69
2024/02/08 06:28:33;;;;;;;;;;;14.60;67.40;;;;;;5014576;28;19996;-69
2024/02/08 06:31:06;;;;;;;;;;;14.60;67.30;;;;;;5014869;28;19917;-69
2024/02/08 06:34:09;;;;;;;;;;;14.60;67.20;;;;;;5020808;28;19909;-69
2024/02/08 06:36:40;;;;;;;;;;;14.50;62.80;;;;;;5014157;28;19909;-69
2024/02/08 06:39:23;;;;;;;;;;;14.60;62.70;;;;;;5014511;28;19913;-69
2024/02/08 06:41:52;;;;;;;;;;;14.50;66.50;;;;;;5014121;28;19910;-69
2024/02/08 07:39:30;;;;;;;;;;;14.50;64.00;;;;;;5013530;28;19964;-72
2024/02/08 07:41:58;;;;;;;;;;;14.80;64.30;;;;;;5013090;28;19916;-69
2024/02/08 07:44:30;;;;;;;;;;;14.50;67.90;;;;;;5012994;28;19963;-70
2024/02/08 07:46:56;;;;;;;;;;;14.50;67.60;;;;;;5013852;28;19920;-70
2024/02/08 07:49:41;;;;;;;;;;;14.60;67.70;;;;;;5012962;28;20408;-69
2024/02/08 07:52:19;;;;;;;;;;;14.20;67.60;;;;;;5012947;28;19951;-69
2024/02/08 07:54:56;;;;;;;;;;;14.60;63.00;;;;;;5012837;28;19937;-69
2024/02/08 07:57:26;;;;;;;;;;;14.60;63.20;;;;;;5019474;28;19913;-69
2024/02/08 07:59:53;;;;;;;;;;;14.60;68.20;;;;;;5012940;28;19916;-68
2024/02/08 08:02:23;;;;;;;;;;;14.60;67.20;;;;;;5012609;28;19948;-69
2024/02/08 08:04:52;;;;;;;;;;;14.60;67.70;;;;;;5012686;28;20390;-69
2024/02/08 08:07:22;;;;;;;;;;;14.50;66.30;;;;;;5012716;28;19917;-69
2024/02/08 08:10:07;;;;;;;;;;;14.60;67.60;;;;;;5019211;28;19936;-70
2024/02/08 08:12:35;;;;;;;;;;;14.60;67.30;;;;;;5012483;28;19929;-69
2024/02/08 08:19:52;;;;;;;;;;;14.60;67.10;;;;;;5012496;28;19909;-68
2024/02/08 08:27:50;;;;;;;;;;;14.50;67.50;;;;;;5012316;28;20299;-69
2024/02/08 08:30:28;;;;;;;;;;;14.70;62.90;;;;;;5012240;28;19960;-71
2024/02/08 08:33:07;;;;;;;;;;;14.60;65.30;;;;;;5012215;28;19910;-79
2024/02/08 08:35:47;;;;;;;;;;;14.60;66.60;;;;;;5012165;28;19928;-69
2024/02/08 08:40:48;;;;;;;;;;;14.60;65.90;;;;;;5018994;28;19916;-70
2024/02/08 08:43:19;;;;;;;;;;;14.60;67.00;;;;;;5012001;28;19909;-69
2024/02/08 08:45:50;;;;;;;;;;;14.60;67.00;;;;;;5019001;28;20265;-69
2024/02/08 08:48:21;;;;;;;;;;;14.70;67.30;;;;;;5018933;28;19960;-69
2024/02/08 08:50:55;;;;;;;;;;;14.60;62.40;;;;;;5018437;28;19914;-69
2024/02/08 08:53:27;;;;;;;;;;;14.60;67.20;;;;;;5025115;28;19919;-69
2024/02/08 08:55:55;;;;;;;;;;;14.60;62.40;;;;;;5018351;28;19910;-68
2024/02/08 08:58:38;;;;;;;;;;;14.60;66.50;;;;;;5018424;28;20260;-68
2024/02/08 09:01:11;;;;;;;;;;;14.60;65.80;;;;;;5018965;28;19910;-69
2024/02/08 09:03:40;;;;;;;;;;;14.70;66.20;;;;;;5018276;28;19921;-68
2024/02/08 09:06:12;;;;;;;;;;;14.60;62.10;;;;;;5018392;28;19957;-68
2024/02/08 09:08:54;;;;;;;;;;;14.70;66.10;;;;;;5025117;28;19975;-69
2024/02/08 09:11:26;;;;;;;;;;;14.70;62.20;;;;;;5018462;28;20359;-69
2024/02/08 09:13:52;;;;;;;;;;;14.60;62.00;;;;;;5018300;28;19910;-69
2024/02/08 09:21:32;;;;;;;;;;;14.60;66.60;;;;;;5018703;28;20116;-69
2024/02/08 09:24:07;;;;;;;;;;;14.80;66.80;;;;;;5024825;28;20043;-71
2024/02/08 09:26:48;;;;;;;;;;;14.60;66.40;;;;;;5018735;28;19940;-69
2024/02/08 09:29:15;;;;;;;;;;;14.50;66.90;;;;;;5018601;28;19963;-71
2024/02/08 09:31:43;;;;;;;;;;;14.70;66.80;;;;;;5018266;28;20007;-71
2024/02/08 09:34:14;;;;;;;;;;;14.70;66.40;;;;;;5018498;28;19910;-71
2024/02/08 09:36:42;;;;;;;;;;;14.70;66.70;;;;;;5018504;28;19910;-70
2024/02/08 09:39:14;;;;;;;;;;;14.70;66.70;;;;;;5018380;28;19960;-70
2024/02/08 09:41:44;;;;;;;;;;;14.60;66.70;;;;;;5018178;28;20380;-70
2024/02/08 09:44:11;;;;;;;;;;;14.70;66.60;;;;;;5018006;28;20541;-71
2024/02/08 09:49:13;;;;;;;;;;;14.80;67.00;;;;;;5018576;28;19952;-72
2024/02/08 09:51:40;;;;;;;;;;;14.70;67.10;;;;;;5024764;28;19913;-79
2024/02/08 09:54:15;;;;;;;;;;;14.70;66.80;;;;;;5018372;28;20323;-79
2024/02/08 09:56:50;;;;;;;;;;;14.80;65.00;;;;;;5018146;28;20013;-79
2024/02/08 09:59:40;;;;;;;;;;;14.70;67.20;;;;;;5014892;28;19933;-79
2024/02/08 10:02:20;;;;;;;;;;;14.80;66.60;;;;;;5014783;28;19909;-79
2024/02/08 10:04:50;;;;;;;;;;;14.70;67.40;;;;;;5014811;28;19928;-79
2024/02/08 10:07:19;;;;;;;;;;;14.80;62.90;;;;;;5015249;28;20316;-79
2024/02/08 10:09:47;;;;;;;;;;;14.90;67.20;;;;;;5015103;28;19976;-80
2024/02/08 10:12:20;;;;;;;;;;;14.80;66.80;;;;;;5014871;28;19916;-79
2024/02/08 10:14:50;;;;;;;;;;;14.70;67.40;;;;;;5015185;28;19998;-80
2024/02/08 10:17:27;;;;;;;;;;;14.70;67.00;;;;;;5014727;28;20353;-80
2024/02/08 10:22:56;;;;;;;;;;;14.70;67.30;;;;;;5015035;28;20371;-80
2024/02/08 10:28:09;;;;;;;;;;;14.70;62.90;;;;;;5014438;28;19987;-71
2024/02/08 10:30:36;;;;;;;;;;;14.70;67.40;;;;;;5014264;28;19964;-70
2024/02/08 10:33:04;;;;;;;;;;;14.80;67.60;;;;;;5014535;28;20280;-70
2024/02/08 10:35:33;;;;;;;;;;;14.90;67.50;;;;;;5014197;28;20250;-70
2024/02/08 10:38:09;;;;;;;;;;;14.80;67.00;;;;;;5020959;28;19910;-70
2024/02/08 10:40:35;;;;;;;;;;;14.70;64.00;;;;;;5014274;28;19940;-71
2024/02/08 10:43:17;;;;;;;;;;;14.80;67.50;;;;;;5014040;28;20335;-71
2024/02/08 10:46:04;;;;;;;;;;;14.80;62.70;;;;;;5013813;28;19921;-69
2024/02/08 10:48:30;;;;;;;;;;;14.80;62.70;;;;;;5014245;28;20334;-70
2024/02/08 10:51:02;;;;;;;;;;;14.90;67.40;;;;;;5014091;28;20249;-71
2024/02/08 10:53:43;;;;;;;;;;;14.90;67.40;;;;;;5013888;28;20318;-70
2024/02/08 10:56:17;;;;;;;;;;;14.80;67.40;;;;;;5014275;28;20271;-70
2024/02/08 10:59:38;;;;;;;;;;;14.90;62.90;;;;;;5014134;28;19909;-69
2024/02/08 11:04:18;;;;;;;;;;;14.90;67.60;;;;;;5016722;28;20024;-74
2024/02/08 11:09:37;;;;;;;;;;;14.80;62.70;;;;;;5019382;28;19936;-68
2024/02/08 11:12:18;;;;;;;;;;;14.80;67.40;;;;;;5013623;28;20361;-70
2024/02/08 11:15:13;;;;;;;;;;;14.80;62.70;;;;;;5013890;28;19952;-68
2024/02/08 11:17:39;;;;;;;;;;;14.80;62.60;;;;;;5013625;28;19910;-70
2024/02/08 11:20:16;;;;;;;;;;;14.80;67.60;;;;;;5013692;28;20241;-70
2024/02/08 11:22:43;;;;;;;;;;;14.90;65.70;;;;;;5013642;28;20004;-70
2024/02/08 11:25:19;;;;;;;;;;;14.80;67.10;;;;;;5013302;28;20332;-69
2024/02/08 11:27:55;;;;;;;;;;;14.80;62.60;;;;;;5013426;28;19910;-68
2024/02/08 11:30:33;;;;;;;;;;;14.80;67.30;;;;;;5013479;28;19920;-70
2024/02/08 11:33:02;;;;;;;;;;;14.80;67.10;;;;;;5012049;28;19925;-71
2024/02/08 11:35:31;;;;;;;;;;;14.80;67.10;;;;;;5013304;28;20257;-70
2024/02/08 11:38:09;;;;;;;;;;;14.90;62.80;;;;;;5013568;28;20334;-70
2024/02/08 11:40:36;;;;;;;;;;;14.90;62.60;;;;;;5013359;28;19917;-70
2024/02/08 11:43:05;;;;;;;;;;;14.90;67.00;;;;;;5013316;28;19909;-70
2024/02/08 11:45:32;;;;;;;;;;;14.80;62.50;;;;;;5013108;28;19943;-71
2024/02/08 11:48:04;;;;;;;;;;;14.80;66.80;;;;;;5013079;28;19914;-69
2024/02/08 11:50:36;;;;;;;;;;;14.80;66.90;;;;;;5013191;28;19925;-73
2024/02/08 11:53:09;;;;;;;;;;;14.80;67.00;;;;;;5019499;28;20022;-72
2024/02/08 11:55:35;;;;;;;;;;;14.80;62.40;;;;;;5012760;28;19916;-73
2024/02/08 11:58:03;;;;;;;;;;;14.80;66.80;;;;;;5013208;28;19910;-78
2024/02/08 12:00:30;;;;;;;;;;;14.80;66.60;;;;;;5012978;28;19909;-78
2024/02/08 12:02:57;;;;;;;;;;;14.90;66.00;;;;;;5012271;28;19910;-78
2024/02/08 12:05:24;;;;;;;;;;;14.80;66.70;;;;;;5012809;28;19925;-78
2024/02/08 12:07:50;;;;;;;;;;;14.80;66.70;;;;;;5012407;28;20317;-77
2024/02/08 12:10:17;;;;;;;;;;;14.80;66.70;;;;;;5011602;28;20292;-78
2024/02/08 12:12:44;;;;;;;;;;;14.80;66.70;;;;;;5012363;28;19964;-78
2024/02/08 12:15:11;;;;;;;;;;;14.80;66.90;;;;;;5012647;28;19915;-78
2024/02/08 12:17:40;;;;;;;;;;;14.80;66.70;;;;;;5012442;28;19909;-78
2024/02/08 12:20:09;;;;;;;;;;;14.80;66.90;;;;;;5012334;28;19909;-78
2024/02/08 12:22:41;;;;;;;;;;;14.80;65.60;;;;;;5012202;28;19910;-78
2024/02/08 12:25:15;;;;;;;;;;;14.90;62.00;;;;;;5012321;28;19921;-78
2024/02/08 12:27:48;;;;;;;;;;;14.80;66.20;;;;;;5012341;28;19909;-79
2024/02/08 12:30:17;;;;;;;;;;;14.80;66.80;;;;;;5012379;28;20008;-77
2024/02/08 12:32:44;;;;;;;;;;;14.80;66.50;;;;;;5012076;28;19929;-76
2024/02/08 12:35:13;;;;;;;;;;;14.90;66.60;;;;;;5012709;28;19910;-77
2024/02/08 12:37:41;;;;;;;;;;;14.80;63.20;;;;;;5012061;28;19909;-76
2024/02/08 12:40:12;;;;;;;;;;;14.70;66.60;;;;;;5012234;28;19920;-77
2024/02/08 12:42:39;;;;;;;;;;;14.70;64.20;;;;;;5012543;28;19913;-76
2024/02/08 12:45:10;;;;;;;;;;;14.80;66.80;;;;;;5012554;28;19992;-82
2024/02/08 12:47:39;;;;;;;;;;;14.80;66.10;;;;;;5012913;28;20404;-86
2024/02/08 12:50:08;;;;;;;;;;;14.80;66.30;;;;;;5012513;28;19910;-83
2024/02/08 12:52:34;;;;;;;;;;;14.80;65.60;;;;;;5013012;28;19909;-84
2024/02/08 12:55:00;;;;;;;;;;;14.80;65.90;;;;;;5012358;28;19917;-84
2024/02/08 12:57:27;;;;;;;;;;;14.70;66.10;;;;;;5012291;28;19909;-85
2024/02/08 13:00:07;;;;;;;;;;;14.70;66.60;;;;;;5012329;28;20392;-84
2024/02/08 13:02:33;;;;;;;;;;;14.60;65.50;;;;;;5015767;28;19909;-84
2024/02/08 13:05:01;;;;;;;;;;;14.70;66.10;;;;;;5012008;28;19948;-84
2024/02/08 13:07:26;;;;;;;;;;;14.70;66.10;;;;;;5012550;28;20287;-84
2024/02/08 13:10:00;;;;;;;;;;;14.80;66.00;;;;;;5012609;28;19922;-84
2024/02/08 13:12:27;;;;;;;;;;;14.70;66.30;;;;;;5012599;28;19951;-85
2024/02/08 13:14:52;;;;;;;;;;;14.70;66.20;;;;;;5012395;28;19913;-84
2024/02/08 13:17:21;;;;;;;;;;;14.80;66.10;;;;;;5012167;28;20374;-85
2024/02/08 13:19:54;;;;;;;;;;;14.60;66.00;;;;;;5012601;28;20268;-86
2024/02/08 13:22:30;;;;;;;;;;;14.70;61.40;;;;;;5012494;28;19917;-85
2024/02/08 13:24:57;;;;;;;;;;;14.70;64.10;;;;;;5012293;28;19918;-84
2024/02/08 13:27:33;;;;;;;;;;;14.70;66.20;;;;;;5012298;28;19952;-82
2024/02/08 13:30:00;;;;;;;;;;;14.70;66.10;;;;;;5012204;28;20380;-82
2024/02/08 13:32:29;;;;;;;;;;;14.70;66.50;;;;;;5012376;28;19909;-82
2024/02/08 13:34:57;;;;;;;;;;;14.70;66.30;;;;;;5015742;28;19916;-73
2024/02/08 13:37:23;;;;;;;;;;;15.20;66.60;;;;;;5015831;28;19933;-73
2024/02/08 13:39:50;;;;;;;;;;;14.70;66.10;;;;;;5016046;28;19909;-73
2024/02/08 13:42:19;;;;;;;;;;;14.70;66.50;;;;;;5016046;28;19909;-73
2024/02/08 13:44:45;;;;;;;;;;;14.70;66.70;;;;;;5015884;28;19918;-73
2024/02/08 13:47:12;;;;;;;;;;;14.70;66.50;;;;;;5015772;28;19996;-73
2024/02/08 13:49:39;;;;;;;;;;;14.70;65.70;;;;;;5016012;28;20301;-72
2024/02/08 13:52:06;;;;;;;;;;;14.80;66.90;;;;;;5015342;28;19917;-73
2024/02/08 13:54:35;;;;;;;;;;;14.70;66.40;;;;;;5015320;28;20368;-73
2024/02/08 13:57:01;;;;;;;;;;;14.70;66.90;;;;;;5015223;28;19929;-73
2024/02/08 13:59:27;;;;;;;;;;;14.70;66.80;;;;;;5015559;28;20008;-72
2024/02/08 14:01:52;;;;;;;;;;;14.70;66.20;;;;;;5015293;28;19914;-73
2024/02/08 14:04:21;;;;;;;;;;;14.70;66.60;;;;;;5014866;28;19922;-72
2024/02/08 14:06:55;;;;;;;;;;;14.70;65.70;;;;;;5015137;28;19909;-71
2024/02/08 14:09:25;;;;;;;;;;;14.70;67.00;;;;;;5015488;28;20342;-72
2024/02/08 14:11:55;;;;;;;;;;;14.80;67.00;;;;;;5015239;28;19910;-72
2024/02/08 14:14:31;;;;;;;;;;;14.70;66.50;;;;;;5021631;28;20004;-72
2024/02/08 14:16:58;;;;;;;;;;;14.70;66.50;;;;;;5015535;28;19910;-72
2024/02/08 14:19:33;;;;;;;;;;;14.70;67.00;;;;;;5014944;28;19979;-72
2024/02/08 14:22:06;;;;;;;;;;;14.70;66.90;;;;;;5015201;28;19909;-72
2024/02/08 14:24:49;;;;;;;;;;;14.70;62.20;;;;;;5014880;28;19917;-72
2024/02/08 14:27:15;;;;;;;;;;;14.70;67.00;;;;;;5014907;28;19932;-72
2024/02/08 14:29:42;;;;;;;;;;;14.70;66.90;;;;;;5014810;28;19909;-72
2024/02/08 14:32:13;;;;;;;;;;;14.70;66.60;;;;;;5014835;28;19945;-72
2024/02/08 14:34:39;;;;;;;;;;;14.70;66.90;;;;;;5021387;28;19914;-72
2024/02/08 14:37:05;;;;;;;;;;;14.70;67.10;;;;;;5014747;28;19956;-72
2024/02/08 14:39:34;;;;;;;;;;;14.70;67.00;;;;;;5014716;28;19916;-72
2024/02/08 14:42:10;;;;;;;;;;;14.60;66.80;;;;;;5014753;28;19909;-72
2024/02/08 14:44:44;;;;;;;;;;;14.60;67.10;;;;;;5014603;28;20361;-72
2024/02/08 14:47:21;;;;;;;;;;;14.90;67.00;;;;;;5015231;28;19932;-72
2024/02/08 14:49:58;;;;;;;;;;;14.70;67.20;;;;;;5014712;28;19992;-72
2024/02/08 14:52:34;;;;;;;;;;;14.70;66.40;;;;;;5014395;28;20372;-73
2024/02/08 14:55:10;;;;;;;;;;;14.70;62.20;;;;;;5014715;28;19916;-73
2024/02/08 14:57:42;;;;;;;;;;;14.70;66.90;;;;;;5014796;28;19925;-73
2024/02/08 15:02:55;;;;;;;;;;;14.60;66.20;;;;;;5017023;28;19940;-73
2024/02/08 15:08:29;;;;;;;;;;;14.50;62.40;;;;;;5014519;28;19967;-72
2024/02/08 15:11:08;;;;;;;;;;;14.60;66.90;;;;;;5014114;28;20381;-73
2024/02/08 15:13:45;;;;;;;;;;;14.60;63.50;;;;;;5014085;28;19913;-73
2024/02/08 15:16:14;;;;;;;;;;;14.60;67.00;;;;;;5014063;28;19917;-72
2024/02/08 15:18:47;;;;;;;;;;;14.60;62.20;;;;;;5014207;28;19916;-73
2024/02/08 15:21:23;;;;;;;;;;;14.60;66.60;;;;;;5014204;28;19916;-72
2024/02/08 15:26:38;;;;;;;;;;;14.60;62.30;;;;;;5014101;28;19918;-72
2024/02/08 15:29:04;;;;;;;;;;;14.60;66.90;;;;;;5014102;28;19909;-72
2024/02/08 15:31:39;;;;;;;;;;;14.60;67.00;;;;;;5013658;28;20288;-73
2024/02/08 15:34:19;;;;;;;;;;;14.50;66.10;;;;;;5014425;28;20009;-73
2024/02/08 15:36:47;;;;;;;;;;;14.60;63.30;;;;;;5013896;28;19917;-72
2024/02/08 15:42:01;;;;;;;;;;;14.50;66.90;;;;;;5013965;28;19921;-73
2024/02/08 15:44:50;;;;;;;;;;;14.50;66.60;;;;;;5013591;28;19979;-73
2024/02/08 15:47:18;;;;;;;;;;;14.50;66.70;;;;;;5013645;28;19956;-79
2024/02/08 15:49:44;;;;;;;;;;;14.40;66.80;;;;;;5013437;28;20007;-72
2024/02/08 15:52:22;;;;;;;;;;;14.40;66.90;;;;;;5013609;28;20012;-72
2024/02/08 15:54:55;;;;;;;;;;;14.40;66.80;;;;;;5013458;28;20000;-71
2024/02/08 15:57:32;;;;;;;;;;;14.50;62.40;;;;;;5012900;28;19916;-72
2024/02/08 16:00:00;;;;;;;;;;;14.50;62.20;;;;;;5013406;28;19913;-73
2024/02/08 16:02:34;;;;;;;;;;;14.50;66.10;;;;;;5013787;28;19922;-73
2024/02/08 16:05:13;;;;;;;;;;;14.50;66.90;;;;;;5013860;28;19929;-73
2024/02/08 16:07:42;;;;;;;;;;;14.40;66.60;;;;;;5019510;28;19916;-72
2024/02/08 16:10:19;;;;;;;;;;;14.40;66.70;;;;;;5012957;28;19913;-72
2024/02/08 16:12:47;;;;;;;;;;;14.50;66.50;;;;;;5012988;28;19910;-72
2024/02/08 16:15:17;;;;;;;;;;;14.50;66.90;;;;;;5013230;28;20345;-72
2024/02/08 16:18:00;;;;;;;;;;;14.50;66.00;;;;;;5012849;28;19916;-73
2024/02/08 16:20:26;;;;;;;;;;;14.40;65.60;;;;;;5012893;28;20284;-72
2024/02/08 16:22:55;;;;;;;;;;;14.50;66.60;;;;;;5012803;28;19983;-72
2024/02/08 16:28:16;;;;;;;;;;;14.30;62.00;;;;;;5019624;28;20279;-73
2024/02/08 16:33:47;;;;;;;;;;;14.40;66.60;;;;;;5019592;28;19909;-73
2024/02/08 16:39:29;;;;;;;;;;;14.30;66.90;;;;;;5019118;28;19914;-72
2024/02/08 16:41:59;;;;;;;;;;;14.40;62.10;;;;;;5012348;28;19910;-72
2024/02/08 16:44:50;;;;;;;;;;;14.20;66.20;;;;;;5012761;28;19941;-73
2024/02/08 16:47:34;;;;;;;;;;;14.30;66.90;;;;;;5012505;28;19910;-71
2024/02/08 16:50:07;;;;;;;;;;;14.00;66.60;;;;;;5011183;28;19910;-73
2024/02/08 16:52:45;;;;;;;;;;;14.20;66.90;;;;;;5012685;28;20399;-71
2024/02/08 16:55:12;;;;;;;;;;;14.30;66.60;;;;;;5018980;28;19909;-72
2024/02/08 16:57:39;;;;;;;;;;;14.20;66.70;;;;;;5012391;28;19921;-71
2024/02/08 17:03:04;;;;;;;;;;;14.20;66.30;;;;;;5012703;28;19917;-72
2024/02/08 17:05:48;;;;;;;;;;;14.20;66.80;;;;;;5012353;28;19928;-72
2024/02/08 17:08:20;;;;;;;;;;;14.30;67.00;;;;;;5015377;28;20382;-72
2024/02/08 17:10:55;;;;;;;;;;;14.20;66.80;;;;;;5022713;28;19909;-72
2024/02/08 17:13:27;;;;;;;;;;;14.20;62.40;;;;;;5016355;28;19917;-71
2024/02/08 17:15:57;;;;;;;;;;;14.20;67.30;;;;;;5016532;28;19933;-72